createdAt,value
2017-10-25T00:00:18.362Z,17.5
2017-10-25T00:01:19.757Z,17.4
2017-10-25T00:02:21.158Z,17.4
2017-10-25T00:03:22.553Z,17.4
2017-10-25T00:04:23.950Z,17.5
2017-10-25T00:05:25.351Z,17.4
2017-10-25T00:06:26.751Z,17.5
2017-10-25T00:07:28.150Z,17.5
2017-10-25T00:08:29.551Z,17.4
2017-10-25T00:09:30.952Z,17.5
2017-10-25T00:10:32.350Z,17.4
2017-10-25T00:11:33.898Z,17.6
2017-10-25T00:12:35.434Z,17.5
2017-10-25T00:13:36.894Z,17.6
2017-10-25T00:14:38.296Z,17.5
2017-10-25T00:15:39.699Z,17.5
2017-10-25T00:16:41.101Z,17.5
2017-10-25T00:17:42.500Z,17.5
2017-10-25T00:18:43.902Z,17.4
2017-10-25T00:19:45.297Z,17.5
2017-10-25T00:20:46.698Z,17.5
2017-10-25T00:21:48.092Z,17.5
2017-10-25T00:22:49.493Z,17.6
2017-10-25T00:23:50.896Z,17.5
2017-10-25T00:24:52.291Z,17.6
2017-10-25T00:25:53.689Z,17.6
2017-10-25T00:26:55.091Z,17.5
2017-10-25T00:27:56.491Z,17.5
2017-10-25T00:28:57.890Z,17.4
2017-10-25T00:29:59.290Z,17.4
2017-10-25T00:31:00.697Z,17.5
2017-10-25T00:32:02.096Z,17.4
2017-10-25T00:33:03.493Z,17.5
2017-10-25T00:34:04.897Z,17.4
2017-10-25T00:35:06.296Z,17.5
2017-10-25T00:36:07.696Z,17.5
2017-10-25T00:37:09.097Z,17.5
2017-10-25T00:38:10.501Z,17.5
2017-10-25T00:39:11.897Z,17.5
2017-10-25T00:40:13.300Z,17.4
2017-10-25T00:41:14.698Z,17.5
2017-10-25T00:42:16.098Z,17.4
2017-10-25T00:43:17.495Z,17.5
2017-10-25T00:44:18.896Z,17.4
2017-10-25T00:45:20.296Z,17.5
2017-10-25T00:46:21.695Z,17.5
2017-10-25T00:47:23.096Z,17.5
2017-10-25T00:48:24.495Z,17.5
2017-10-25T00:49:25.893Z,17.5
2017-10-25T00:50:27.294Z,17.5
2017-10-25T00:51:28.695Z,17.5
2017-10-25T00:52:30.099Z,17.5
2017-10-25T00:53:31.499Z,17.5
2017-10-25T00:54:32.895Z,17.5
2017-10-25T00:55:34.305Z,17.5
2017-10-25T00:56:35.693Z,17.5
2017-10-25T00:57:37.093Z,17.4
2017-10-25T00:58:38.499Z,17.4
2017-10-25T00:59:39.903Z,17.4
2017-10-25T01:00:41.301Z,17.4
2017-10-25T01:01:42.694Z,17.5
2017-10-25T01:02:44.094Z,17.5
2017-10-25T01:03:45.497Z,17.5
2017-10-25T01:04:46.895Z,17.4
2017-10-25T01:05:48.294Z,17.4
2017-10-25T01:06:49.698Z,17.5
2017-10-25T01:07:51.099Z,17.4
2017-10-25T01:08:52.496Z,17.4
2017-10-25T01:09:53.895Z,17.4
2017-10-25T01:10:55.293Z,17.4
2017-10-25T01:11:56.695Z,17.4
2017-10-25T01:12:58.097Z,17.4
2017-10-25T01:13:59.505Z,17.5
2017-10-25T01:15:00.909Z,17.4
2017-10-25T01:16:02.303Z,17.4
2017-10-25T01:17:03.704Z,17.4
2017-10-25T01:18:05.100Z,17.4
2017-10-25T01:19:06.501Z,17.4
2017-10-25T01:20:07.950Z,17.5
2017-10-25T01:21:09.352Z,17.5
2017-10-25T01:22:10.749Z,17.4
2017-10-25T01:23:12.148Z,17.4
2017-10-25T01:24:13.547Z,17.4
2017-10-25T01:25:14.950Z,17.4
2017-10-25T01:26:16.355Z,17.5
2017-10-25T01:27:17.792Z,17.4
2017-10-25T01:28:19.194Z,17.4
2017-10-25T01:29:20.591Z,17.4
2017-10-25T01:30:21.988Z,17.4
2017-10-25T01:31:23.387Z,17.4
2017-10-25T01:32:24.787Z,17.4
2017-10-25T01:33:26.190Z,17.4
2017-10-25T01:34:27.590Z,17.5
2017-10-25T01:35:28.990Z,17.4
2017-10-25T01:36:30.388Z,17.4
2017-10-25T01:37:31.787Z,17.4
2017-10-25T01:38:33.191Z,17.5
2017-10-25T01:39:34.589Z,17.4
2017-10-25T01:40:35.988Z,17.4
2017-10-25T01:41:37.388Z,17.4
2017-10-25T01:42:38.788Z,17.4
2017-10-25T01:43:40.187Z,17.4
2017-10-25T01:44:41.584Z,17.4
2017-10-25T01:45:42.984Z,17.3
2017-10-25T01:46:44.388Z,17.4
2017-10-25T01:47:45.787Z,17.5
2017-10-25T01:48:47.186Z,17.4
2017-10-25T01:49:48.588Z,17.4
2017-10-25T01:50:49.986Z,17.5
2017-10-25T01:51:51.383Z,17.5
2017-10-25T01:52:52.785Z,17.5
2017-10-25T01:53:54.183Z,17.5
2017-10-25T01:54:55.580Z,17.5
2017-10-25T01:55:56.981Z,17.5
2017-10-25T01:56:58.378Z,17.5
2017-10-25T01:57:59.778Z,17.5
2017-10-25T01:59:01.188Z,17.5
2017-10-25T02:00:02.577Z,17.5
2017-10-25T02:01:03.977Z,17.5
2017-10-25T02:02:05.376Z,17.5
2017-10-25T02:03:06.777Z,17.5
2017-10-25T02:04:08.179Z,17.5
2017-10-25T02:05:09.577Z,17.4
2017-10-25T02:06:10.977Z,17.4
2017-10-25T02:07:12.374Z,17.4
2017-10-25T02:08:13.773Z,17.4
2017-10-25T02:09:15.175Z,17.5
2017-10-25T02:10:16.576Z,17.5
2017-10-25T02:11:17.976Z,17.4
2017-10-25T02:12:19.371Z,17.4
2017-10-25T02:13:20.773Z,17.4
2017-10-25T02:14:22.172Z,17.6
2017-10-25T02:15:23.571Z,17.5
2017-10-25T02:16:24.974Z,17.4
2017-10-25T02:17:26.379Z,17.5
2017-10-25T02:18:27.782Z,17.5
2017-10-25T02:19:29.180Z,17.6
2017-10-25T02:20:30.578Z,17.5
2017-10-25T02:21:31.975Z,17.6
2017-10-25T02:22:33.375Z,17.6
2017-10-25T02:23:34.779Z,17.5
2017-10-25T02:24:36.177Z,17.7
2017-10-25T02:25:37.583Z,17.6
2017-10-25T02:26:38.980Z,17.5
2017-10-25T02:27:40.382Z,17.6
2017-10-25T02:28:41.780Z,17.6
2017-10-25T02:29:43.184Z,17.6
2017-10-25T02:30:44.584Z,17.6
2017-10-25T02:31:45.983Z,17.5
2017-10-25T02:32:47.386Z,17.5
2017-10-25T02:33:48.783Z,17.6
2017-10-25T02:34:50.185Z,17.5
2017-10-25T02:35:51.581Z,17.6
2017-10-25T02:36:52.980Z,17.5
2017-10-25T02:37:54.383Z,17.6
2017-10-25T02:38:55.782Z,17.6
2017-10-25T02:39:57.184Z,17.7
2017-10-25T02:40:58.589Z,17.5
2017-10-25T02:41:59.983Z,17.6
2017-10-25T02:43:01.379Z,17.7
2017-10-25T02:44:02.781Z,17.6
2017-10-25T02:45:04.184Z,17.7
2017-10-25T02:46:05.578Z,17.7
2017-10-25T02:47:06.982Z,17.6
2017-10-25T02:48:08.379Z,17.7
2017-10-25T02:49:09.777Z,17.6
2017-10-25T02:50:11.174Z,17.6
2017-10-25T02:51:12.573Z,17.6
2017-10-25T02:52:13.974Z,17.5
2017-10-25T02:53:15.374Z,17.7
2017-10-25T02:54:16.772Z,17.6
2017-10-25T02:55:18.174Z,17.6
2017-10-25T02:56:19.575Z,17.7
2017-10-25T02:57:20.975Z,17.6
2017-10-25T02:58:22.379Z,17.7
2017-10-25T02:59:23.826Z,17.6
2017-10-25T03:00:25.226Z,17.5
2017-10-25T03:01:26.624Z,17.7
2017-10-25T03:02:28.025Z,17.7
2017-10-25T03:03:29.425Z,17.6
2017-10-25T03:04:30.824Z,17.7
2017-10-25T03:05:32.226Z,17.6
2017-10-25T03:06:33.624Z,17.7
2017-10-25T03:07:35.025Z,17.5
2017-10-25T03:08:36.426Z,17.6
2017-10-25T03:09:37.823Z,17.6
2017-10-25T03:10:39.222Z,17.5
2017-10-25T03:11:40.623Z,17.5
2017-10-25T03:12:42.021Z,17.6
2017-10-25T03:13:43.427Z,17.5
2017-10-25T03:14:44.827Z,17.6
2017-10-25T03:15:46.230Z,17.6
2017-10-25T03:16:47.628Z,17.5
2017-10-25T03:17:49.027Z,17.5
2017-10-25T03:18:50.422Z,17.6
2017-10-25T03:19:51.826Z,17.6
2017-10-25T03:20:53.225Z,17.4
2017-10-25T03:21:54.623Z,17.4
2017-10-25T03:22:56.025Z,17.4
2017-10-25T03:23:57.425Z,17.5
2017-10-25T03:24:58.823Z,17.6
2017-10-25T03:26:00.223Z,17.5
2017-10-25T03:27:01.629Z,17.5
2017-10-25T03:28:03.021Z,17.5
2017-10-25T03:29:04.425Z,17.5
2017-10-25T03:30:05.826Z,17.5
2017-10-25T03:31:07.237Z,17.5
2017-10-25T03:32:08.622Z,17.5
2017-10-25T03:33:10.020Z,17.4
2017-10-25T03:34:11.419Z,17.3
2017-10-25T03:35:12.819Z,17.4
2017-10-25T03:36:14.221Z,17.4
2017-10-25T03:37:15.624Z,17.4
2017-10-25T03:38:17.020Z,17.3
2017-10-25T03:39:18.421Z,17.4
2017-10-25T03:40:19.821Z,17.4
2017-10-25T03:41:21.218Z,17.4
2017-10-25T03:42:22.619Z,17.4
2017-10-25T03:43:24.019Z,17.4
2017-10-25T03:44:25.420Z,17.3
2017-10-25T03:45:26.817Z,17.3
2017-10-25T03:46:28.216Z,17.3
2017-10-25T03:47:29.623Z,17.3
2017-10-25T03:48:31.027Z,17.3
2017-10-25T03:49:32.434Z,17.4
2017-10-25T03:50:33.836Z,17.3
2017-10-25T03:51:35.236Z,17.3
2017-10-25T03:52:36.636Z,17.2
2017-10-25T03:53:38.036Z,17.3
2017-10-25T03:54:39.435Z,17.2
2017-10-25T03:55:40.839Z,17.3
2017-10-25T03:56:42.242Z,17.3
2017-10-25T03:57:43.641Z,17.3
2017-10-25T03:58:45.040Z,17.2
2017-10-25T03:59:46.436Z,17.2
2017-10-25T04:00:47.838Z,17.2
2017-10-25T04:01:49.239Z,17.2
2017-10-25T04:02:50.644Z,17.2
2017-10-25T04:03:52.043Z,17.2
2017-10-25T04:04:53.443Z,17.2
2017-10-25T04:05:54.843Z,17.2
2017-10-25T04:06:56.241Z,17.2
2017-10-25T04:07:57.641Z,17.1
2017-10-25T04:08:59.041Z,17.1
2017-10-25T04:10:00.437Z,17.2
2017-10-25T04:11:01.837Z,17.1
2017-10-25T04:12:03.243Z,17.2
2017-10-25T04:13:04.639Z,17.2
2017-10-25T04:14:06.039Z,17.1
2017-10-25T04:15:07.435Z,17.2
2017-10-25T04:16:08.836Z,17.0
2017-10-25T04:17:10.236Z,17.1
2017-10-25T04:18:11.636Z,17.1
2017-10-25T04:19:13.035Z,17.1
2017-10-25T04:20:14.436Z,17.1
2017-10-25T04:21:15.834Z,17.0
2017-10-25T04:22:17.235Z,17.1
2017-10-25T04:23:18.630Z,17.1
2017-10-25T04:24:20.030Z,17.0
2017-10-25T04:25:21.431Z,17.1
2017-10-25T04:26:22.832Z,17.1
2017-10-25T04:27:24.234Z,17.0
2017-10-25T04:28:25.631Z,17.0
2017-10-25T04:29:27.031Z,17.0
2017-10-25T04:30:28.434Z,17.0
2017-10-25T04:31:29.833Z,17.0
2017-10-25T04:32:31.233Z,17.0
2017-10-25T04:33:32.641Z,17.1
2017-10-25T04:34:34.038Z,17.0
2017-10-25T04:35:35.433Z,17.0
2017-10-25T04:36:36.834Z,17.0
2017-10-25T04:37:38.230Z,17.0
2017-10-25T04:38:39.672Z,17.0
2017-10-25T04:39:41.073Z,16.9
2017-10-25T04:40:42.660Z,16.9
2017-10-25T04:41:44.059Z,16.9
2017-10-25T04:42:45.462Z,16.9
2017-10-25T04:43:46.863Z,16.9
2017-10-25T04:44:48.263Z,17.0
2017-10-25T04:45:49.662Z,16.9
2017-10-25T04:46:51.067Z,16.9
2017-10-25T04:47:52.585Z,16.9
2017-10-25T04:48:53.999Z,16.9
2017-10-25T04:49:55.390Z,16.8
2017-10-25T04:50:56.786Z,16.9
2017-10-25T04:51:58.185Z,16.9
2017-10-25T04:52:59.590Z,16.9
2017-10-25T04:54:00.986Z,16.8
2017-10-25T04:55:02.395Z,16.9
2017-10-25T04:56:03.791Z,16.8
2017-10-25T04:57:05.192Z,16.8
2017-10-25T04:58:06.597Z,16.8
2017-10-25T04:59:07.992Z,16.8
2017-10-25T05:00:09.392Z,16.8
2017-10-25T05:01:10.791Z,16.8
2017-10-25T05:02:12.191Z,16.9
2017-10-25T05:03:13.592Z,16.8
2017-10-25T05:04:14.991Z,16.8
2017-10-25T05:05:16.384Z,16.8
2017-10-25T05:06:17.782Z,16.8
2017-10-25T05:07:19.182Z,16.8
2017-10-25T05:08:20.591Z,16.9
2017-10-25T05:09:21.992Z,16.8
2017-10-25T05:10:23.391Z,16.7
2017-10-25T05:11:24.799Z,16.7
2017-10-25T05:12:26.210Z,16.7
2017-10-25T05:13:27.604Z,16.8
2017-10-25T05:14:29.000Z,16.7
2017-10-25T05:15:30.404Z,16.8
2017-10-25T05:16:31.804Z,16.7
2017-10-25T05:17:33.208Z,16.8
2017-10-25T05:18:34.606Z,16.9
2017-10-25T05:19:36.002Z,16.7
2017-10-25T05:20:37.400Z,16.8
2017-10-25T05:21:38.801Z,16.7
2017-10-25T05:22:40.200Z,16.7
2017-10-25T05:23:41.600Z,16.7
2017-10-25T05:24:43.004Z,16.7
2017-10-25T05:25:44.401Z,16.7
2017-10-25T05:26:45.799Z,16.6
2017-10-25T05:27:47.391Z,16.6
2017-10-25T05:28:48.795Z,16.6
2017-10-25T05:29:50.193Z,16.6
2017-10-25T05:30:51.595Z,16.6
2017-10-25T05:31:52.997Z,16.6
2017-10-25T05:32:54.394Z,16.5
2017-10-25T05:33:55.795Z,16.5
2017-10-25T05:34:57.193Z,16.4
2017-10-25T05:35:58.594Z,16.5
2017-10-25T05:36:59.996Z,16.5
2017-10-25T05:38:01.396Z,16.4
2017-10-25T05:39:03.149Z,16.4
2017-10-25T05:40:04.543Z,16.4
2017-10-25T05:41:05.941Z,16.3
2017-10-25T05:42:08.468Z,16.3
2017-10-25T05:43:09.751Z,16.3
2017-10-25T05:44:11.149Z,16.3
2017-10-25T05:45:12.550Z,16.3
2017-10-25T05:46:13.948Z,16.3
2017-10-25T05:47:15.346Z,16.3
2017-10-25T05:48:16.747Z,16.3
2017-10-25T05:49:18.144Z,16.4
2017-10-25T05:50:19.547Z,16.3
2017-10-25T05:51:20.949Z,16.3
2017-10-25T05:52:22.354Z,16.3
2017-10-25T05:53:23.750Z,16.4
2017-10-25T05:54:25.150Z,16.3
2017-10-25T05:55:26.556Z,16.3
2017-10-25T05:56:27.954Z,16.3
2017-10-25T05:57:29.353Z,16.3
2017-10-25T05:58:30.754Z,16.3
2017-10-25T05:59:32.154Z,16.4
2017-10-25T06:00:33.561Z,16.3
2017-10-25T06:01:34.959Z,16.3
2017-10-25T06:02:36.359Z,16.3
2017-10-25T06:03:37.758Z,16.3
2017-10-25T06:04:39.159Z,16.3
2017-10-25T06:05:40.563Z,16.3
2017-10-25T06:06:41.963Z,16.3
2017-10-25T06:07:43.369Z,16.3
2017-10-25T06:08:44.764Z,16.3
2017-10-25T06:09:46.159Z,16.3
2017-10-25T06:10:47.561Z,16.3
2017-10-25T06:11:48.965Z,16.2
2017-10-25T06:12:50.367Z,16.3
2017-10-25T06:13:51.800Z,16.2
2017-10-25T06:14:53.207Z,16.3
2017-10-25T06:15:54.607Z,16.3
2017-10-25T06:16:56.005Z,16.3
2017-10-25T06:17:57.403Z,16.3
2017-10-25T06:18:58.805Z,16.2
2017-10-25T06:20:00.214Z,16.3
2017-10-25T06:21:01.610Z,16.3
2017-10-25T06:22:03.012Z,16.3
2017-10-25T06:23:04.408Z,16.3
2017-10-25T06:24:05.809Z,16.3
2017-10-25T06:25:07.209Z,16.2
2017-10-25T06:26:08.610Z,16.2
2017-10-25T06:27:10.012Z,16.3
2017-10-25T06:28:11.413Z,16.2
2017-10-25T06:29:12.814Z,16.2
2017-10-25T06:30:14.209Z,16.2
2017-10-25T06:31:15.611Z,16.2
2017-10-25T06:32:17.011Z,16.2
2017-10-25T06:33:18.420Z,16.1
2017-10-25T06:34:19.818Z,16.2
2017-10-25T06:35:21.221Z,16.3
2017-10-25T06:36:22.627Z,16.3
2017-10-25T06:37:24.024Z,16.2
2017-10-25T06:38:25.424Z,16.2
2017-10-25T06:39:26.822Z,16.2
2017-10-25T06:40:28.224Z,16.1
2017-10-25T06:41:29.627Z,16.2
2017-10-25T06:42:31.039Z,16.2
2017-10-25T06:43:32.437Z,16.2
2017-10-25T06:44:33.837Z,16.2
2017-10-25T06:45:35.253Z,16.1
2017-10-25T06:46:36.638Z,16.2
2017-10-25T06:47:38.041Z,16.2
2017-10-25T06:48:39.451Z,16.2
2017-10-25T06:49:40.846Z,16.2
2017-10-25T06:50:42.253Z,16.2
2017-10-25T06:51:43.655Z,16.2
2017-10-25T06:52:45.056Z,16.2
2017-10-25T06:53:46.460Z,16.2
2017-10-25T06:54:47.859Z,16.3
2017-10-25T06:57:58.644Z,16.3
2017-10-25T06:59:00.117Z,16.3
2017-10-25T07:00:01.508Z,16.3
2017-10-25T07:01:02.898Z,16.3
2017-10-25T07:02:04.293Z,16.3
2017-10-25T07:03:05.688Z,16.3
2017-10-25T07:04:07.094Z,16.4
2017-10-25T07:05:08.491Z,16.4
2017-10-25T07:06:09.884Z,16.4
2017-10-25T07:07:11.280Z,16.3
2017-10-25T07:08:12.670Z,16.5
2017-10-25T07:09:54.578Z,16.4
2017-10-25T07:10:55.959Z,16.4
2017-10-25T07:12:17.460Z,16.5
2017-10-25T07:13:18.852Z,16.5
2017-10-25T07:14:40.388Z,16.5
2017-10-25T07:15:41.780Z,16.5
2017-10-25T07:17:03.285Z,16.6
2017-10-25T07:18:04.671Z,16.6
2017-10-25T07:19:26.202Z,16.6
2017-10-25T07:20:27.596Z,16.6
2017-10-25T07:21:50.087Z,16.6
2017-10-25T07:22:51.480Z,16.6
2017-10-25T07:24:13.006Z,16.6
2017-10-25T07:25:14.396Z,16.6
2017-10-25T07:26:36.883Z,16.7
2017-10-25T07:27:38.278Z,16.7
2017-10-25T07:29:00.768Z,16.6
2017-10-25T07:30:02.211Z,16.7
2017-10-25T07:31:24.733Z,16.7
2017-10-25T07:32:26.136Z,16.7
2017-10-25T07:33:47.639Z,16.8
2017-10-25T07:34:49.039Z,16.7
2017-10-25T07:36:10.562Z,16.8
2017-10-25T07:37:11.953Z,16.8
2017-10-25T07:38:33.458Z,16.8
2017-10-25T07:39:34.852Z,16.9
2017-10-25T07:40:56.499Z,16.9
2017-10-25T07:41:57.889Z,17.0
2017-10-25T07:43:19.387Z,17.0
2017-10-25T07:44:20.778Z,17.1
2017-10-25T07:45:42.321Z,17.1
2017-10-25T07:46:43.714Z,17.1
2017-10-25T07:48:06.206Z,17.2
2017-10-25T07:49:07.599Z,17.2
2017-10-25T07:50:30.096Z,17.3
2017-10-25T07:51:31.490Z,17.3
2017-10-25T07:52:53.014Z,17.4
2017-10-25T07:53:54.408Z,17.4
2017-10-25T07:55:16.907Z,17.5
2017-10-25T07:56:18.304Z,17.5
2017-10-25T07:57:19.699Z,17.5
2017-10-25T07:58:21.113Z,17.5
2017-10-25T07:59:22.507Z,17.4
2017-10-25T08:00:23.905Z,17.5
2017-10-25T08:01:25.308Z,17.5
2017-10-25T08:02:26.696Z,17.6
2017-10-25T08:03:28.096Z,17.7
2017-10-25T08:04:29.489Z,17.6
2017-10-25T08:05:30.883Z,17.5
2017-10-25T08:06:32.281Z,17.5
2017-10-25T08:07:33.674Z,17.5
2017-10-25T08:08:35.069Z,17.5
2017-10-25T08:09:36.466Z,17.5
2017-10-25T08:10:37.858Z,17.4
2017-10-25T08:11:39.253Z,17.4
2017-10-25T08:12:40.648Z,17.5
2017-10-25T08:13:42.041Z,17.4
2017-10-25T08:14:43.436Z,17.5
2017-10-25T08:15:44.832Z,17.5
2017-10-25T08:16:46.230Z,17.5
2017-10-25T08:17:47.628Z,17.4
2017-10-25T08:18:49.025Z,17.5
2017-10-25T08:19:50.423Z,17.5
2017-10-25T08:20:51.819Z,17.4
2017-10-25T08:21:53.214Z,17.4
2017-10-25T08:22:54.615Z,17.5
2017-10-25T08:23:56.012Z,17.5
2017-10-25T08:24:57.407Z,17.5
2017-10-25T08:25:58.802Z,17.5
2017-10-25T08:27:00.198Z,17.7
2017-10-25T08:28:01.597Z,17.7
2017-10-25T08:29:02.995Z,17.7
2017-10-25T08:30:04.396Z,17.6
2017-10-25T08:31:05.799Z,17.6
2017-10-25T08:32:07.190Z,17.7
2017-10-25T08:33:08.584Z,17.9
2017-10-25T08:34:09.975Z,17.9
2017-10-25T08:35:11.376Z,17.8
2017-10-25T08:36:12.814Z,17.9
2017-10-25T08:37:14.172Z,17.9
2017-10-25T08:38:15.570Z,17.9
2017-10-25T08:39:16.963Z,18.0
2017-10-25T08:40:18.363Z,18.0
2017-10-25T08:41:19.756Z,18.1
2017-10-25T08:42:21.153Z,17.9
2017-10-25T08:43:22.553Z,18.0
2017-10-25T08:44:23.948Z,18.0
2017-10-25T08:45:25.346Z,18.1
2017-10-25T08:46:26.738Z,18.0
2017-10-25T08:47:28.136Z,18.2
2017-10-25T08:48:29.546Z,18.1
2017-10-25T08:49:30.925Z,18.0
2017-10-25T08:50:32.323Z,18.0
2017-10-25T08:51:33.724Z,18.1
2017-10-25T08:52:35.118Z,18.0
2017-10-25T08:53:36.512Z,18.0
2017-10-25T08:54:37.912Z,18.1
2017-10-25T08:55:39.306Z,18.3
2017-10-25T08:56:40.705Z,18.3
2017-10-25T08:57:42.103Z,18.3
2017-10-25T08:58:43.503Z,18.2
2017-10-25T08:59:44.906Z,18.0
2017-10-25T09:00:46.295Z,18.2
2017-10-25T09:01:47.691Z,18.1
2017-10-25T09:02:49.087Z,18.1
2017-10-25T09:03:50.481Z,18.2
2017-10-25T09:04:51.877Z,18.1
2017-10-25T09:05:53.276Z,18.0
2017-10-25T09:06:54.675Z,18.0
2017-10-25T09:07:56.070Z,18.0
2017-10-25T09:08:57.466Z,18.0
2017-10-25T09:09:58.863Z,18.0
2017-10-25T09:11:00.263Z,17.9
2017-10-25T09:12:01.656Z,17.9
2017-10-25T09:13:03.053Z,17.9
2017-10-25T09:14:04.453Z,17.9
2017-10-25T09:15:05.847Z,17.7
2017-10-25T09:16:07.242Z,17.7
2017-10-25T09:17:08.651Z,17.8
2017-10-25T09:18:10.039Z,17.7
2017-10-25T09:19:11.434Z,17.7
2017-10-25T09:20:12.836Z,17.6
2017-10-25T09:21:14.267Z,17.6
2017-10-25T09:22:15.660Z,17.6
2017-10-25T09:23:17.053Z,17.8
2017-10-25T09:24:18.451Z,17.9
2017-10-25T09:25:19.848Z,18.0
2017-10-25T09:26:21.246Z,17.9
2017-10-25T09:27:22.645Z,18.0
2017-10-25T09:28:24.046Z,18.0
2017-10-25T09:29:25.446Z,18.1
2017-10-25T09:30:26.843Z,18.2
2017-10-25T09:31:28.240Z,18.1
2017-10-25T09:32:29.636Z,18.1
2017-10-25T09:33:31.036Z,18.1
2017-10-25T09:34:32.436Z,18.1
2017-10-25T09:35:33.837Z,18.2
2017-10-25T09:36:35.231Z,18.3
2017-10-25T09:37:36.628Z,18.2
2017-10-25T09:38:38.027Z,18.3
2017-10-25T09:39:39.416Z,18.4
2017-10-25T09:40:40.818Z,18.4
2017-10-25T09:41:42.220Z,18.4
2017-10-25T09:42:43.614Z,18.3
2017-10-25T09:43:45.007Z,18.4
2017-10-25T09:44:46.406Z,18.1
2017-10-25T09:45:47.805Z,18.2
2017-10-25T09:46:49.199Z,18.4
2017-10-25T09:47:50.594Z,18.5
2017-10-25T09:48:51.999Z,18.5
2017-10-25T09:49:53.401Z,18.7
2017-10-25T09:50:54.794Z,18.6
2017-10-25T09:51:56.193Z,18.6
2017-10-25T09:52:57.597Z,18.7
2017-10-25T09:53:58.997Z,18.7
2017-10-25T09:55:00.398Z,19.0
2017-10-25T09:56:01.797Z,19.3
2017-10-25T09:57:03.196Z,19.0
2017-10-25T09:58:04.597Z,19.1
2017-10-25T09:59:05.995Z,19.0
2017-10-25T10:00:07.389Z,19.2
2017-10-25T10:01:08.790Z,19.0
2017-10-25T10:02:10.194Z,18.9
2017-10-25T10:03:11.597Z,19.1
2017-10-25T10:04:13.000Z,19.1
2017-10-25T10:05:14.393Z,19.0
2017-10-25T10:06:15.792Z,19.0
2017-10-25T10:07:17.189Z,19.0
2017-10-25T10:08:18.588Z,19.2
2017-10-25T10:09:19.986Z,19.0
2017-10-25T10:10:21.384Z,19.4
2017-10-25T10:11:22.787Z,19.6
2017-10-25T10:12:24.183Z,19.4
2017-10-25T10:13:25.618Z,19.2
2017-10-25T10:14:27.016Z,19.4
2017-10-25T10:15:28.418Z,19.4
2017-10-25T10:16:29.817Z,19.5
2017-10-25T10:17:31.223Z,19.4
2017-10-25T10:18:32.627Z,19.8
2017-10-25T10:19:34.029Z,20.2
2017-10-25T10:20:35.427Z,20.2
2017-10-25T10:21:36.828Z,20.1
2017-10-25T10:22:38.237Z,20.5
2017-10-25T10:23:39.637Z,20.4
2017-10-25T10:24:41.039Z,20.8
2017-10-25T10:25:42.450Z,20.9
2017-10-25T10:26:43.848Z,21.2
2017-10-25T10:27:45.248Z,21.8
2017-10-25T10:28:46.649Z,21.9
2017-10-25T10:29:48.057Z,22.1
2017-10-25T10:30:49.456Z,22.2
2017-10-25T10:31:50.860Z,22.5
2017-10-25T10:32:52.261Z,22.5
2017-10-25T10:33:53.662Z,22.4
2017-10-25T10:34:55.065Z,22.2
2017-10-25T10:35:56.467Z,22.7
2017-10-25T10:36:57.868Z,22.7
2017-10-25T10:37:59.266Z,22.8
2017-10-25T10:39:00.670Z,22.2
2017-10-25T10:40:02.089Z,21.7
2017-10-25T10:41:03.481Z,22.3
2017-10-25T10:42:04.883Z,22.7
2017-10-25T10:43:06.286Z,22.3
2017-10-25T10:44:07.686Z,21.7
2017-10-25T10:45:09.085Z,21.8
2017-10-25T10:46:10.490Z,22.0
2017-10-25T10:47:11.896Z,22.1
2017-10-25T10:48:13.300Z,22.4
2017-10-25T10:49:14.707Z,22.0
2017-10-25T10:50:16.109Z,22.7
2017-10-25T10:51:17.513Z,23.1
2017-10-25T10:52:18.915Z,22.6
2017-10-25T10:53:20.326Z,22.0
2017-10-25T10:54:21.723Z,21.7
2017-10-25T10:55:23.119Z,21.4
2017-10-25T10:56:24.518Z,21.0
2017-10-25T10:57:25.919Z,20.8
2017-10-25T10:58:27.324Z,20.3
2017-10-25T10:59:28.726Z,20.4
2017-10-25T11:00:30.133Z,20.6
2017-10-25T11:01:31.528Z,20.3
2017-10-25T11:02:32.931Z,20.2
2017-10-25T11:03:34.330Z,20.3
2017-10-25T11:04:35.732Z,20.1
2017-10-25T11:05:37.128Z,19.9
2017-10-25T11:06:38.532Z,19.9
2017-10-25T11:07:39.933Z,19.8
2017-10-25T11:08:41.332Z,19.6
2017-10-25T11:09:42.729Z,19.6
2017-10-25T11:10:44.129Z,19.6
2017-10-25T11:11:45.527Z,19.5
2017-10-25T11:12:46.926Z,19.5
2017-10-25T11:13:48.323Z,19.3
2017-10-25T11:14:49.728Z,19.3
2017-10-25T11:15:51.122Z,19.3
2017-10-25T11:16:52.516Z,19.4
2017-10-25T11:17:53.914Z,19.4
2017-10-25T11:18:55.313Z,19.1
2017-10-25T11:19:56.713Z,19.0
2017-10-25T11:20:58.065Z,19.0
2017-10-25T11:21:59.468Z,19.1
2017-10-25T11:23:00.864Z,19.0
2017-10-25T11:24:02.262Z,19.0
2017-10-25T11:25:03.658Z,19.0
2017-10-25T11:26:05.055Z,18.9
2017-10-25T11:27:06.452Z,19.0
2017-10-25T11:28:07.850Z,19.0
2017-10-25T11:29:09.248Z,19.0
2017-10-25T11:30:10.647Z,19.0
2017-10-25T11:31:12.044Z,19.0
2017-10-25T11:32:13.463Z,19.1
2017-10-25T11:33:14.843Z,19.2
2017-10-25T11:34:16.238Z,19.2
2017-10-25T11:35:17.637Z,19.4
2017-10-25T11:36:19.036Z,19.3
2017-10-25T11:37:20.435Z,19.3
2017-10-25T11:38:21.830Z,19.3
2017-10-25T11:39:23.228Z,19.3
2017-10-25T11:40:24.625Z,19.1
2017-10-25T11:41:26.024Z,19.1
2017-10-25T11:42:27.422Z,19.1
2017-10-25T11:43:28.821Z,19.2
2017-10-25T11:44:30.221Z,19.2
2017-10-25T11:45:31.620Z,19.1
2017-10-25T11:46:33.014Z,19.0
2017-10-25T11:47:34.419Z,18.9
2017-10-25T11:48:35.818Z,18.9
2017-10-25T11:49:37.222Z,18.7
2017-10-25T11:50:38.620Z,18.9
2017-10-25T11:51:40.027Z,18.7
2017-10-25T11:52:41.448Z,18.9
2017-10-25T11:53:42.842Z,18.8
2017-10-25T11:54:44.237Z,18.9
2017-10-25T11:55:45.633Z,18.8
2017-10-25T11:56:47.032Z,18.9
2017-10-25T11:57:48.430Z,18.7
2017-10-25T11:58:49.836Z,18.9
2017-10-25T11:59:51.229Z,18.9
2017-10-25T12:00:52.638Z,18.7
2017-10-25T12:01:54.033Z,18.8
2017-10-25T12:02:55.430Z,18.7
2017-10-25T12:03:56.822Z,18.6
2017-10-25T12:04:58.219Z,18.7
2017-10-25T12:05:59.617Z,18.7
2017-10-25T12:07:01.013Z,18.7
2017-10-25T12:08:02.408Z,18.6
2017-10-25T12:09:03.805Z,18.6
2017-10-25T12:10:05.203Z,18.6
2017-10-25T12:11:06.601Z,18.6
2017-10-25T12:12:07.999Z,18.6
2017-10-25T12:13:09.396Z,18.5
2017-10-25T12:14:10.790Z,18.6
2017-10-25T12:15:12.184Z,18.6
2017-10-25T12:16:13.581Z,18.6
2017-10-25T12:17:14.975Z,18.6
2017-10-25T12:18:16.374Z,18.6
2017-10-25T12:19:17.776Z,18.6
2017-10-25T12:20:19.173Z,18.6
2017-10-25T12:21:20.565Z,18.5
2017-10-25T12:22:21.963Z,18.5
2017-10-25T12:23:23.358Z,18.3
2017-10-25T12:24:24.754Z,18.4
2017-10-25T12:25:26.153Z,18.5
2017-10-25T12:26:27.553Z,18.5
2017-10-25T12:27:28.955Z,18.5
2017-10-25T12:28:30.349Z,18.4
2017-10-25T12:29:31.745Z,18.5
2017-10-25T12:30:33.140Z,18.5
2017-10-25T12:31:34.537Z,18.4
2017-10-25T12:32:35.934Z,18.4
2017-10-25T12:33:37.331Z,18.4
2017-10-25T12:34:38.737Z,18.4
2017-10-25T12:35:40.124Z,18.3
2017-10-25T12:36:41.520Z,18.3
2017-10-25T12:37:42.915Z,18.4
2017-10-25T12:38:44.314Z,18.4
2017-10-25T12:39:45.707Z,18.4
2017-10-25T12:40:47.106Z,18.3
2017-10-25T12:41:48.509Z,18.4
2017-10-25T12:42:49.902Z,18.3
2017-10-25T12:43:51.299Z,18.2
2017-10-25T12:44:52.692Z,18.3
2017-10-25T12:45:54.086Z,18.3
2017-10-25T12:46:55.481Z,18.2
2017-10-25T12:47:56.880Z,18.3
2017-10-25T12:48:58.277Z,18.2
2017-10-25T12:49:59.673Z,18.2
2017-10-25T12:51:01.076Z,18.2
2017-10-25T12:52:02.467Z,18.2
2017-10-25T12:53:03.869Z,18.2
2017-10-25T12:54:05.265Z,18.3
2017-10-25T12:55:06.667Z,18.2
2017-10-25T12:56:08.063Z,18.3
2017-10-25T12:57:09.462Z,18.5
2017-10-25T12:58:10.860Z,18.5
2017-10-25T12:59:12.250Z,18.9
2017-10-25T13:00:13.651Z,19.0
2017-10-25T13:01:15.051Z,19.1
2017-10-25T13:02:16.453Z,18.9
2017-10-25T13:03:17.853Z,19.0
2017-10-25T13:04:19.244Z,19.0
2017-10-25T13:05:20.643Z,19.0
2017-10-25T13:06:22.041Z,19.0
2017-10-25T13:07:23.438Z,18.9
2017-10-25T13:08:24.835Z,18.9
2017-10-25T13:09:26.233Z,18.9
2017-10-25T13:10:27.631Z,18.9
2017-10-25T13:11:29.025Z,19.0
2017-10-25T13:12:30.427Z,18.8
2017-10-25T13:13:31.825Z,18.7
2017-10-25T13:14:33.223Z,18.7
2017-10-25T13:15:34.623Z,18.6
2017-10-25T13:16:36.019Z,18.6
2017-10-25T13:17:37.421Z,18.7
2017-10-25T13:18:38.813Z,18.7
2017-10-25T13:19:40.219Z,18.7
2017-10-25T13:20:41.607Z,18.7
2017-10-25T13:21:43.005Z,18.8
2017-10-25T13:22:44.402Z,18.8
2017-10-25T13:23:45.802Z,18.8
2017-10-25T13:24:47.200Z,18.8
2017-10-25T13:25:48.591Z,18.6
2017-10-25T13:26:49.995Z,18.5
2017-10-25T13:27:51.380Z,18.5
2017-10-25T13:28:52.777Z,18.5
2017-10-25T13:29:54.174Z,18.5
2017-10-25T13:30:55.565Z,18.4
2017-10-25T13:31:56.966Z,18.3
2017-10-25T13:32:58.358Z,18.4
2017-10-25T13:33:59.754Z,18.4
2017-10-25T13:35:01.149Z,18.2
2017-10-25T13:36:02.541Z,18.1
2017-10-25T13:37:03.935Z,18.3
2017-10-25T13:38:05.333Z,18.2
2017-10-25T13:39:06.730Z,18.2
2017-10-25T13:40:08.123Z,18.2
2017-10-25T13:41:09.523Z,18.1
2017-10-25T13:42:10.917Z,18.1
2017-10-25T13:43:12.326Z,18.1
2017-10-25T13:44:13.716Z,18.2
2017-10-25T13:45:15.112Z,18.1
2017-10-25T13:46:16.509Z,18.0